createdAt,value
2024-04-06T00:01:27.732Z,100098.08
2024-04-06T00:03:59.923Z,100101.39
2024-04-06T00:06:31.846Z,100103.80
2024-04-06T00:09:04.238Z,100106.52
2024-04-06T00:11:35.840Z,100108.30
2024-04-06T00:14:15.156Z,100110.13
2024-04-06T00:16:46.882Z,100108.23
2024-04-06T00:19:19.657Z,100101.95
2024-04-06T00:21:51.490Z,100100.10
2024-04-06T00:24:24.355Z,100105.31
2024-04-06T00:26:56.530Z,100114.86
2024-04-06T00:29:28.592Z,100121.36
2024-04-06T00:32:03.972Z,100121.25
2024-04-06T00:34:36.082Z,100119.95
2024-04-06T00:37:10.069Z,100123.17
2024-04-06T00:39:42.393Z,100122.02
2024-04-06T00:42:17.635Z,100122.80
2024-04-06T00:44:49.729Z,100118.17
2024-04-06T00:47:21.996Z,100118.96
2024-04-06T00:49:54.070Z,100125.29
2024-04-06T00:52:27.123Z,100133.29
2024-04-06T00:54:59.385Z,100136.06
2024-04-06T00:57:31.363Z,100130.09
2024-04-06T01:00:07.497Z,100123.05
2024-04-06T01:02:40.374Z,100118.61
2024-04-06T01:05:32.274Z,100119.00
2024-04-06T01:08:05.180Z,100123.67
2024-04-06T01:10:37.874Z,100131.23
2024-04-06T01:13:11.800Z,100136.59
2024-04-06T01:15:43.745Z,100143.72
2024-04-06T01:18:16.658Z,100150.91
2024-04-06T01:20:48.639Z,100166.62
2024-04-06T01:23:24.977Z,100159.59
2024-04-06T01:25:56.881Z,100154.17
2024-04-06T01:28:28.572Z,100148.18
2024-04-06T01:31:00.606Z,100142.02
2024-04-06T01:33:32.491Z,100126.45
2024-04-06T01:36:08.049Z,100110.04
2024-04-06T01:38:39.933Z,100103.90
2024-04-06T01:41:12.082Z,100106.18
2024-04-06T01:43:45.192Z,100106.77
2024-04-06T01:46:20.657Z,100104.29
2024-04-06T01:48:52.277Z,100110.90
2024-04-06T01:51:27.408Z,100115.09
2024-04-06T01:54:01.375Z,100107.61
2024-04-06T01:56:36.210Z,100094.23
2024-04-06T01:59:11.304Z,100094.02
2024-04-06T02:01:47.345Z,100097.64
2024-04-06T02:04:19.439Z,100093.16
2024-04-06T02:06:51.282Z,100098.52
2024-04-06T02:09:22.986Z,100102.94
2024-04-06T02:11:55.177Z,100098.48
2024-04-06T02:14:27.068Z,100095.64
2024-04-06T02:17:00.385Z,100099.79
2024-04-06T02:19:50.018Z,100108.18
2024-04-06T02:22:21.981Z,100108.02
2024-04-06T02:24:53.682Z,100100.66
2024-04-06T02:27:25.339Z,100106.90
2024-04-06T02:29:56.988Z,100109.05
2024-04-06T02:32:29.740Z,100111.38
2024-04-06T02:35:01.466Z,100109.61
2024-04-06T02:37:35.388Z,100109.04
2024-04-06T02:40:10.948Z,100113.65
2024-04-06T02:42:46.334Z,100110.27
2024-04-06T02:45:20.410Z,100116.05
2024-04-06T02:47:52.057Z,100115.08
2024-04-06T02:50:23.782Z,100121.48
2024-04-06T02:52:55.705Z,100121.48
2024-04-06T02:55:27.376Z,100123.25
2024-04-06T02:57:59.761Z,100121.12
2024-04-06T03:00:31.441Z,100125.63
2024-04-06T03:03:03.157Z,100129.24
2024-04-06T03:05:34.883Z,100130.55
2024-04-06T03:08:08.151Z,100131.11
2024-04-06T03:10:39.738Z,100133.55
2024-04-06T03:13:11.516Z,100135.15
2024-04-06T03:15:43.150Z,100138.34
2024-04-06T03:18:17.450Z,100132.98
2024-04-06T03:20:59.082Z,100135.84
2024-04-06T03:23:31.328Z,100138.52
2024-04-06T03:26:03.225Z,100140.89
2024-04-06T03:28:35.362Z,100145.62
2024-04-06T03:31:07.476Z,100146.27
2024-04-06T03:33:39.871Z,100148.22
2024-04-06T03:36:11.934Z,100152.73
2024-04-06T03:38:44.106Z,100158.13
2024-04-06T03:41:18.129Z,100157.62
2024-04-06T03:43:50.552Z,100156.84
2024-04-06T03:47:10.620Z,100158.14
2024-04-06T03:49:59.080Z,100167.17
2024-04-06T03:52:31.003Z,100166.48
2024-04-06T03:55:03.703Z,100169.92
2024-04-06T03:57:35.760Z,100171.81
2024-04-06T04:00:10.516Z,100175.14
2024-04-06T04:02:44.658Z,100179.19
2024-04-06T04:05:18.255Z,100180.94
2024-04-06T04:07:51.379Z,100184.34
2024-04-06T04:10:23.964Z,100185.52
2024-04-06T04:12:55.751Z,100189.77
2024-04-06T04:15:28.507Z,100191.13
2024-04-06T04:18:03.026Z,100193.89
2024-04-06T04:20:36.847Z,100201.23
2024-04-06T04:23:09.002Z,100207.66
2024-04-06T04:25:44.929Z,100212.28
2024-04-06T04:28:29.729Z,100215.45
2024-04-06T04:31:19.311Z,100218.95
2024-04-06T04:34:03.189Z,100229.15
2024-04-06T04:36:39.830Z,100233.01
2024-04-06T04:39:14.339Z,100235.95
2024-04-06T04:41:47.598Z,100242.05
2024-04-06T04:44:35.739Z,100247.67
2024-04-06T04:47:13.077Z,100253.34
2024-04-06T04:49:44.919Z,100253.61
2024-04-06T04:52:20.842Z,100253.80
2024-04-06T04:54:54.266Z,100260.16
2024-04-06T04:57:26.762Z,100256.50
2024-04-06T04:59:59.862Z,100264.30
2024-04-06T05:02:32.118Z,100269.69
2024-04-06T05:05:05.211Z,100274.77
2024-04-06T05:07:37.674Z,100282.52
2024-04-06T05:10:11.867Z,100283.73
2024-04-06T05:12:46.157Z,100288.38
2024-04-06T05:15:21.040Z,100294.26
2024-04-06T05:17:53.335Z,100287.23
2024-04-06T05:20:25.781Z,100295.00
2024-04-06T05:22:58.049Z,100301.12
2024-04-06T05:25:29.626Z,100303.83
2024-04-06T05:28:03.061Z,100308.15
2024-04-06T05:30:45.000Z,100307.64
2024-04-06T05:33:19.648Z,100306.06
2024-04-06T05:35:54.976Z,100305.30
2024-04-06T05:38:29.347Z,100303.86
2024-04-06T05:41:01.154Z,100308.09
2024-04-06T05:43:36.471Z,100314.60
2024-04-06T05:46:08.605Z,100321.02
2024-04-06T05:48:44.010Z,100327.54
2024-04-06T05:51:15.695Z,100332.45
2024-04-06T05:53:51.665Z,100334.33
2024-04-06T05:56:23.481Z,100337.25
2024-04-06T05:58:55.383Z,100332.24
2024-04-06T06:01:27.965Z,100344.79
2024-04-06T06:03:59.896Z,100346.09
2024-04-06T06:06:55.704Z,100351.23
2024-04-06T06:09:32.335Z,100353.14
2024-04-06T06:12:04.043Z,100357.42
2024-04-06T06:14:36.982Z,100361.05
2024-04-06T06:17:09.122Z,100360.16
2024-04-06T06:19:41.196Z,100359.71
2024-04-06T06:22:13.139Z,100362.02
2024-04-06T06:24:46.734Z,100367.92
2024-04-06T06:27:20.536Z,100371.44
2024-04-06T06:29:53.056Z,100374.14
2024-04-06T06:32:33.448Z,100376.09
2024-04-06T06:35:09.842Z,100378.39
2024-04-06T06:43:30.376Z,100374.46
2024-04-06T06:46:02.259Z,100372.80
2024-04-06T06:48:34.192Z,100376.00
2024-04-06T06:51:06.734Z,100377.64
2024-04-06T06:53:38.415Z,100383.60
2024-04-06T06:56:13.009Z,100384.30
2024-04-06T06:58:47.512Z,100383.00
2024-04-06T07:01:22.978Z,100382.39
2024-04-06T07:03:54.884Z,100383.09
2024-04-06T07:09:10.748Z,100383.27
2024-04-06T07:11:44.912Z,100384.81
2024-04-06T07:14:29.058Z,100386.98
2024-04-06T07:17:02.058Z,100394.60
2024-04-06T07:19:36.276Z,100395.82
2024-04-06T07:22:09.019Z,100399.77
2024-04-06T07:24:41.516Z,100406.26
2024-04-06T07:27:13.767Z,100402.13
2024-04-06T07:29:45.666Z,100405.23
2024-04-06T07:32:20.577Z,100410.79
2024-04-06T07:34:52.345Z,100421.11
2024-04-06T07:37:25.221Z,100421.97
2024-04-06T07:39:56.848Z,100428.37
2024-04-06T07:42:29.618Z,100426.66
2024-04-06T07:45:08.717Z,100427.30
2024-04-06T07:47:42.298Z,100432.64
2024-04-06T07:50:14.192Z,100431.58
2024-04-06T07:52:47.369Z,100433.05
2024-04-06T07:55:22.131Z,100429.41
2024-04-06T07:58:03.251Z,100428.73
2024-04-06T08:00:35.212Z,100428.77
2024-04-06T08:03:07.864Z,100432.72
2024-04-06T08:05:39.588Z,100435.63
2024-04-06T08:08:11.757Z,100440.04
2024-04-06T08:10:46.388Z,100444.77
2024-04-06T08:13:21.966Z,100443.84
2024-04-06T08:15:54.051Z,100445.81
2024-04-06T08:18:26.961Z,100446.31
2024-04-06T08:21:01.125Z,100444.95
2024-04-06T08:23:36.268Z,100443.39
2024-04-06T08:26:08.208Z,100445.66
2024-04-06T08:28:50.623Z,100444.52
2024-04-06T08:31:39.121Z,100435.55
2024-04-06T08:34:11.167Z,100437.41
2024-04-06T08:36:43.226Z,100439.55
2024-04-06T08:39:15.441Z,100437.14
2024-04-06T08:41:50.158Z,100442.52
2024-04-06T08:44:34.083Z,100443.64
2024-04-06T08:47:10.053Z,100448.27
2024-04-06T08:49:43.126Z,100451.79
2024-04-06T08:52:16.088Z,100453.77
2024-04-06T08:54:49.682Z,100458.65
2024-04-06T08:57:22.365Z,100456.58
2024-04-06T08:59:56.655Z,100458.77
2024-04-06T09:02:33.437Z,100459.16
2024-04-06T09:05:09.236Z,100461.52
2024-04-06T09:07:40.918Z,100458.77
2024-04-06T09:10:12.792Z,100459.10
2024-04-06T09:12:44.800Z,100456.00
2024-04-06T09:15:21.667Z,100452.23
2024-04-06T09:17:53.234Z,100450.92
2024-04-06T09:20:25.525Z,100448.88
2024-04-06T09:22:58.038Z,100448.95
2024-04-06T09:25:29.847Z,100445.27
2024-04-06T09:28:01.555Z,100447.17
2024-04-06T09:30:43.611Z,100449.71
2024-04-06T09:33:16.899Z,100456.17
2024-04-06T09:35:50.848Z,100456.27
2024-04-06T09:38:28.715Z,100457.54
2024-04-06T09:41:01.068Z,100459.41
2024-04-06T09:43:33.071Z,100459.25
2024-04-06T09:46:05.579Z,100458.21
2024-04-06T09:48:39.099Z,100459.17
2024-04-06T09:51:14.113Z,100457.50
2024-04-06T09:53:48.521Z,100466.08
2024-04-06T09:56:23.250Z,100466.73
2024-04-06T09:59:29.461Z,100463.40
2024-04-06T10:02:01.749Z,100459.73
2024-04-06T10:04:39.607Z,100461.70
2024-04-06T10:07:15.823Z,100465.13
2024-04-06T10:09:47.982Z,100467.67
2024-04-06T10:12:20.675Z,100473.45
2024-04-06T10:14:52.214Z,100472.96
2024-04-06T10:17:24.948Z,100472.85
2024-04-06T10:20:00.494Z,100475.83
2024-04-06T10:22:46.905Z,100476.82
2024-04-06T10:25:23.967Z,100472.27
2024-04-06T10:28:07.918Z,100464.44
2024-04-06T10:30:40.926Z,100469.34
2024-04-06T10:33:12.908Z,100472.11
2024-04-06T10:35:49.148Z,100473.45
2024-04-06T10:38:23.643Z,100470.66
2024-04-06T10:40:55.412Z,100473.16
2024-04-06T10:43:27.346Z,100470.23
2024-04-06T10:45:59.013Z,100469.23
2024-04-06T10:48:31.389Z,100472.53
2024-04-06T10:51:04.072Z,100468.58
2024-04-06T10:53:38.075Z,100470.23
2024-04-06T10:56:12.795Z,100470.27
2024-04-06T10:58:45.067Z,100477.31
2024-04-06T11:01:20.983Z,100479.48
2024-04-06T11:04:14.946Z,100482.19
2024-04-06T11:06:46.768Z,100482.89
2024-04-06T11:09:20.212Z,100478.79
2024-04-06T11:11:52.325Z,100483.09
2024-04-06T11:14:29.009Z,100483.80
2024-04-06T11:17:03.475Z,100487.92
2024-04-06T11:19:38.152Z,100493.06
2024-04-06T11:22:10.279Z,100489.20
2024-04-06T11:24:43.442Z,100488.21
2024-04-06T11:27:15.547Z,100487.34
2024-04-06T11:30:02.668Z,100482.67
2024-04-06T11:32:37.028Z,100486.30
2024-04-06T11:35:10.077Z,100484.52
2024-04-06T11:37:42.217Z,100486.52
2024-04-06T11:40:14.614Z,100490.83
2024-04-06T11:42:46.621Z,100486.01
2024-04-06T11:45:19.540Z,100486.02
2024-04-06T11:47:56.100Z,100489.27
2024-04-06T11:50:30.485Z,100486.89
2024-04-06T11:53:02.193Z,100491.92
2024-04-06T11:55:34.575Z,100494.47
2024-04-06T11:58:16.923Z,100487.86
2024-04-06T12:00:51.681Z,100487.27
2024-04-06T12:03:23.306Z,100485.09
2024-04-06T12:05:59.060Z,100481.35
2024-04-06T12:08:31.198Z,100480.52
2024-04-06T12:11:03.334Z,100483.21
2024-04-06T12:13:38.467Z,100484.40
2024-04-06T12:16:14.528Z,100486.77
2024-04-06T12:18:46.323Z,100493.21
2024-04-06T12:21:19.202Z,100490.38
2024-04-06T12:23:54.924Z,100493.08
2024-04-06T12:26:28.436Z,100502.31
2024-04-06T12:29:00.178Z,100499.05
2024-04-06T12:31:50.242Z,100506.13
2024-04-06T12:34:22.058Z,100505.13
2024-04-06T12:36:54.583Z,100507.74
2024-04-06T12:39:26.586Z,100505.63
2024-04-06T12:41:59.099Z,100511.05
2024-04-06T12:44:30.777Z,100517.77
2024-04-06T12:47:03.377Z,100517.13
2024-04-06T12:49:35.111Z,100517.96
2024-04-06T12:52:08.347Z,100517.20
2024-04-06T12:54:40.001Z,100514.11
2024-04-06T12:57:29.773Z,100521.57
2024-04-06T13:00:01.587Z,100518.83
2024-04-06T13:02:33.312Z,100514.27
2024-04-06T13:05:05.014Z,100517.77
2024-04-06T13:07:38.855Z,100520.30
2024-04-06T13:10:10.985Z,100519.26
2024-04-06T13:12:42.996Z,100516.02
2024-04-06T13:15:14.854Z,100520.20
2024-04-06T13:17:47.021Z,100523.61
2024-04-06T13:20:28.165Z,100525.67
2024-04-06T13:23:00.125Z,100531.70
2024-04-06T13:25:31.678Z,100530.48
2024-04-06T13:28:05.249Z,100531.95
2024-04-06T13:30:39.380Z,100533.31
2024-04-06T13:33:11.297Z,100532.30
2024-04-06T13:35:43.159Z,100521.75
2024-04-06T13:38:21.670Z,100526.44
2024-04-06T13:40:53.525Z,100528.83
2024-04-06T13:43:26.350Z,100517.13
2024-04-06T13:45:59.400Z,100519.30
2024-04-06T13:48:34.777Z,100525.48
2024-04-06T13:51:08.263Z,100527.71
2024-04-06T13:53:42.494Z,100528.67
2024-04-06T13:56:17.611Z,100532.00
2024-04-06T13:58:52.323Z,100536.39
2024-04-06T14:01:38.659Z,100533.98
2024-04-06T14:04:10.754Z,100531.80
2024-04-06T14:06:47.335Z,100536.45
2024-04-06T14:09:23.766Z,100539.92
2024-04-06T14:11:56.091Z,100541.55
2024-04-06T14:14:31.218Z,100545.50
2024-04-06T14:17:05.732Z,100545.66
2024-04-06T14:19:38.304Z,100540.14
2024-04-06T14:22:09.901Z,100540.54
2024-04-06T14:24:42.242Z,100542.17
2024-04-06T14:27:14.194Z,100542.42
2024-04-06T14:29:46.267Z,100540.81
2024-04-06T14:32:18.197Z,100538.78
2024-04-06T14:34:51.328Z,100534.11
2024-04-06T14:37:25.627Z,100530.55
2024-04-06T14:39:57.907Z,100533.39
2024-04-06T14:42:29.472Z,100535.05
2024-04-06T14:45:01.404Z,100531.16
2024-04-06T14:47:33.242Z,100535.44
2024-04-06T14:50:06.178Z,100534.45
2024-04-06T14:52:38.859Z,100536.28
2024-04-06T14:55:11.163Z,100539.63
2024-04-06T14:57:42.888Z,100537.59
2024-04-06T15:00:17.108Z,100538.23
2024-04-06T15:02:59.780Z,100541.48
2024-04-06T15:05:31.988Z,100540.40
2024-04-06T15:08:03.744Z,100543.55
2024-04-06T15:10:36.875Z,100546.30
2024-04-06T15:13:11.462Z,100547.37
2024-04-06T15:15:44.383Z,100543.67
2024-04-06T15:18:16.469Z,100544.55
2024-04-06T15:20:50.652Z,100542.69
2024-04-06T15:23:25.206Z,100543.84
2024-04-06T15:25:56.858Z,100547.04
2024-04-06T15:28:28.742Z,100548.06
2024-04-06T15:31:00.831Z,100550.83
2024-04-06T15:33:32.430Z,100552.40
2024-04-06T15:36:04.440Z,100547.66
2024-04-06T15:38:36.790Z,100551.45
2024-04-06T15:41:09.299Z,100550.52
2024-04-06T15:43:44.198Z,100548.31
2024-04-06T15:46:19.247Z,100548.33
2024-04-06T15:48:52.055Z,100546.94
2024-04-06T15:51:24.125Z,100550.33
2024-04-06T15:53:56.003Z,100550.98
2024-04-06T15:56:29.465Z,100550.48
2024-04-06T15:59:01.340Z,100550.84
2024-04-06T16:01:40.378Z,100553.89
2024-04-06T16:04:12.366Z,100553.15
2024-04-06T16:06:44.183Z,100554.21
2024-04-06T16:09:15.944Z,100552.70
2024-04-06T16:11:50.985Z,100553.44
2024-04-06T16:14:24.693Z,100554.56
2024-04-06T16:16:56.363Z,100556.36
2024-04-06T16:19:28.850Z,100554.18
2024-04-06T16:22:00.886Z,100554.74
2024-04-06T16:24:33.918Z,100549.64
2024-04-06T16:27:06.093Z,100547.63
2024-04-06T16:29:37.720Z,100545.78
2024-04-06T16:32:10.621Z,100542.31
2024-04-06T16:34:42.308Z,100542.42
2024-04-06T16:37:14.396Z,100546.24
2024-04-06T16:39:46.306Z,100553.52
2024-04-06T16:42:18.091Z,100552.39
2024-04-06T16:44:49.892Z,100555.59
2024-04-06T16:47:21.499Z,100556.88
2024-04-06T16:49:55.839Z,100559.70
2024-04-06T16:52:28.724Z,100563.53
2024-04-06T16:55:00.484Z,100569.16
2024-04-06T16:57:32.177Z,100574.36
2024-04-06T17:00:06.433Z,100577.08
2024-04-06T17:02:38.245Z,100577.33
2024-04-06T17:05:12.233Z,100578.41
2024-04-06T17:07:44.055Z,100588.37
2024-04-06T17:10:16.337Z,100588.05
2024-04-06T17:12:50.127Z,100591.02
2024-04-06T17:15:27.724Z,100589.45
2024-04-06T17:17:58.455Z,100592.50
2024-04-06T17:20:30.983Z,100591.55
2024-04-06T17:23:05.356Z,100595.15
2024-04-06T17:25:37.639Z,100600.20
2024-04-06T17:28:09.676Z,100605.96
2024-04-06T17:30:43.363Z,100611.86
2024-04-06T17:33:15.865Z,100617.43
2024-04-06T17:35:48.308Z,100619.89
2024-04-06T17:38:20.474Z,100617.77
2024-04-06T17:40:55.467Z,100623.45
2024-04-06T17:43:34.247Z,100629.14
2024-04-06T17:46:10.167Z,100632.80
2024-04-06T17:48:42.212Z,100637.81
2024-04-06T17:51:14.564Z,100643.88
2024-04-06T17:53:46.361Z,100651.23
2024-04-06T17:56:19.206Z,100654.22
2024-04-06T17:58:53.531Z,100658.14
2024-04-06T18:01:31.621Z,100661.09
2024-04-06T18:04:06.320Z,100661.41
2024-04-06T18:06:39.042Z,100659.60
2024-04-06T18:09:12.085Z,100666.89
2024-04-06T18:11:56.591Z,100670.27
2024-04-06T18:14:35.989Z,100678.56
2024-04-06T18:17:09.763Z,100676.73
2024-04-06T18:19:43.310Z,100681.17
2024-04-06T18:22:15.356Z,100681.88
2024-04-06T18:24:51.261Z,100677.98
2024-04-06T18:27:26.920Z,100681.63
2024-04-06T18:29:58.825Z,100685.96
2024-04-06T18:32:32.855Z,100684.52
2024-04-06T18:35:05.162Z,100690.55
2024-04-06T18:37:37.171Z,100691.28
2024-04-06T18:40:10.381Z,100689.39
2024-04-06T18:42:45.643Z,100687.83
2024-04-06T18:45:27.714Z,100688.33
2024-04-06T18:48:01.884Z,100685.25
2024-04-06T18:50:34.775Z,100686.48
2024-04-06T18:53:09.987Z,100685.95
2024-04-06T18:55:50.860Z,100682.06
2024-04-06T18:58:22.839Z,100678.55
2024-04-06T19:01:03.207Z,100680.65
2024-04-06T19:03:35.556Z,100687.58
2024-04-06T19:06:08.361Z,100690.00
2024-04-06T19:08:41.632Z,100687.77
2024-04-06T19:11:15.946Z,100685.64
2024-04-06T19:13:50.678Z,100688.17
2024-04-06T19:16:22.410Z,100684.94
2024-04-06T19:18:54.367Z,100687.05
2024-04-06T19:21:28.780Z,100689.34
2024-04-06T19:24:12.721Z,100691.52
2024-04-06T19:26:48.589Z,100692.48
2024-04-06T19:29:24.171Z,100694.11
2024-04-06T19:31:57.454Z,100696.31
2024-04-06T19:34:31.613Z,100697.84
2024-04-06T19:37:04.167Z,100705.87
2024-04-06T19:39:36.019Z,100708.55
2024-04-06T19:42:08.800Z,100707.15
2024-04-06T19:44:41.713Z,100705.89
2024-04-06T19:47:19.698Z,100712.91
2024-04-06T19:49:54.765Z,100712.25
2024-04-06T19:52:28.289Z,100710.94
2024-04-06T19:54:59.983Z,100712.93
2024-04-06T19:57:32.361Z,100717.29
2024-04-06T20:00:05.568Z,100714.14
2024-04-06T20:02:43.838Z,100714.83
2024-04-06T20:05:30.743Z,100717.70
2024-04-06T20:08:03.372Z,100712.23
2024-04-06T20:10:52.090Z,100720.02
2024-04-06T20:13:23.151Z,100720.16
2024-04-06T20:15:55.576Z,100718.73
2024-04-06T20:18:33.198Z,100722.61
2024-04-06T20:21:05.177Z,100728.16
2024-04-06T20:23:55.200Z,100731.22
2024-04-06T20:26:34.613Z,100733.04
2024-04-06T20:29:10.530Z,100737.13
2024-04-06T20:31:52.014Z,100736.20
2024-04-06T20:34:24.224Z,100734.89
2024-04-06T20:37:07.523Z,100736.84
2024-04-06T20:39:40.413Z,100735.42
2024-04-06T20:42:13.642Z,100736.73
2024-04-06T20:44:48.572Z,100738.64
2024-04-06T20:47:20.894Z,100746.56
2024-04-06T20:49:56.128Z,100746.02
2024-04-06T20:52:30.579Z,100741.66
2024-04-06T20:55:02.937Z,100742.13
2024-04-06T20:57:34.542Z,100745.05
2024-04-06T21:00:07.850Z,100742.73
2024-04-06T21:02:39.588Z,100739.61
2024-04-06T21:05:11.445Z,100741.93
2024-04-06T21:07:43.125Z,100742.89
2024-04-06T21:10:16.477Z,100743.13
2024-04-06T21:12:59.041Z,100740.89
2024-04-06T21:15:37.444Z,100737.27
2024-04-06T21:18:09.473Z,100735.71
2024-04-06T21:20:42.379Z,100734.61
2024-04-06T21:23:14.475Z,100738.29
2024-04-06T21:25:46.443Z,100742.48
2024-04-06T21:28:18.060Z,100744.16
2024-04-06T21:30:50.295Z,100751.37
2024-04-06T21:33:22.059Z,100755.33
2024-04-06T21:35:54.115Z,100754.93
2024-04-06T21:38:25.597Z,100756.21
2024-04-06T21:41:02.395Z,100754.89
2024-04-06T21:43:34.111Z,100758.73
2024-04-06T21:46:10.075Z,100753.15
2024-04-06T21:48:44.011Z,100748.95
2024-04-06T21:51:16.467Z,100748.55
2024-04-06T21:53:48.215Z,100754.95
2024-04-06T21:56:20.552Z,100750.23
2024-04-06T21:58:52.424Z,100743.04
2024-04-06T22:01:30.463Z,100747.62
2024-04-06T22:04:07.207Z,100754.35
2024-04-06T22:06:39.209Z,100758.80
2024-04-06T22:09:11.387Z,100764.27
2024-04-06T22:11:43.345Z,100764.45
2024-04-06T22:14:14.961Z,100770.91
2024-04-06T22:16:48.483Z,100778.96
2024-04-06T22:19:20.175Z,100782.02
2024-04-06T22:21:52.372Z,100783.30
2024-04-06T22:24:23.970Z,100780.08
2024-04-06T22:26:56.265Z,100778.71
2024-04-06T22:29:29.322Z,100784.31
2024-04-06T22:32:01.548Z,100783.63
2024-04-06T22:34:33.213Z,100782.92
2024-04-06T22:37:05.859Z,100787.11
2024-04-06T22:39:37.414Z,100788.91
2024-04-06T22:42:09.674Z,100787.92
2024-04-06T22:44:43.242Z,100791.40
2024-04-06T22:47:17.722Z,100793.58
2024-04-06T22:49:49.328Z,100791.17
2024-04-06T22:52:21.274Z,100792.89
2024-04-06T22:54:53.133Z,100792.29
2024-04-06T22:57:25.763Z,100795.44
2024-04-06T22:59:58.430Z,100797.10
2024-04-06T23:02:35.583Z,100797.91
2024-04-06T23:05:08.063Z,100801.41
2024-04-06T23:07:41.282Z,100799.94
2024-04-06T23:10:13.439Z,100805.23
2024-04-06T23:12:45.371Z,100806.34
2024-04-06T23:15:17.216Z,100805.29
2024-04-06T23:17:57.755Z,100801.50
2024-04-06T23:20:35.414Z,100800.69
2024-04-06T23:23:07.593Z,100803.10
2024-04-06T23:25:39.456Z,100800.25
2024-04-06T23:28:12.102Z,100802.02
2024-04-06T23:30:45.480Z,100804.50
2024-04-06T23:33:16.993Z,100804.31
2024-04-06T23:35:48.927Z,100801.77
2024-04-06T23:38:20.738Z,100804.80
2024-04-06T23:40:53.272Z,100809.69
2024-04-06T23:43:30.422Z,100818.67
2024-04-06T23:46:05.274Z,100816.90
2024-04-06T23:48:39.057Z,100819.21
2024-04-06T23:51:11.805Z,100819.35
2024-04-06T23:53:43.518Z,100812.40
2024-04-06T23:56:15.910Z,100810.55
2024-04-06T23:58:48.538Z,100822.52
